Time;durP1;ratioP1;P1;durP2;ratioP2;P2;SDS_P1;SDS_P2;PMS_P1;PMS_P2;Temp;Humidity;BMP_temperature;BMP_pressure;BME280_temperature;BME280_humidity;BME280_pressure;Samples;Min_cycle;Max_cycle;Signal;HPM_P1;HPM_P2
2023/12/12 00:00:32;;;;;;;;;10.00;8.00;;;;;12.17;99.59;100665.25;5057441;28;66571;-63
2023/12/12 00:03:00;;;;;;;;;8.33;8.33;;;;;12.20;99.43;100651.72;5047954;28;45349;-63
2023/12/12 00:05:26;;;;;;;;;7.00;7.00;;;;;12.22;99.63;100652.50;5057950;28;46401;-64
2023/12/12 00:07:51;;;;;;;;;10.00;8.00;;;;;12.23;100.00;100648.91;5062658;28;45404;-62
2023/12/12 00:10:16;;;;;;;;;13.00;11.00;;;;;12.23;100.00;100656.91;5058211;28;45514;-62
2023/12/12 00:12:43;;;;;;;;;13.00;10.67;;;;;12.22;100.00;100660.50;5057182;28;62083;-61
2023/12/12 00:15:09;;;;;;;;;12.67;10.00;;;;;12.22;100.00;100658.69;5055780;28;46949;-63
2023/12/12 00:17:34;;;;;;;;;12.00;12.00;;;;;12.23;100.00;100659.56;5053445;28;57364;-63
2023/12/12 00:20:00;;;;;;;;;11.67;9.67;;;;;12.22;100.00;100671.16;5056211;28;68412;-61
2023/12/12 00:22:25;;;;;;;;;11.00;10.00;;;;;12.21;100.00;100662.28;5057958;28;46595;-63
2023/12/12 00:24:50;;;;;;;;;11.00;10.00;;;;;12.20;100.00;100644.59;5039307;28;46826;-63
2023/12/12 00:27:16;;;;;;;;;11.67;11.00;;;;;12.21;100.00;100627.63;5056511;28;73042;-62
2023/12/12 00:29:41;;;;;;;;;16.00;11.33;;;;;12.21;100.00;100638.28;5057941;28;45471;-62
2023/12/12 00:32:07;;;;;;;;;16.67;11.33;;;;;12.22;100.00;100652.50;5056869;28;70326;-63
2023/12/12 00:34:36;;;;;;;;;16.33;11.67;;;;;12.23;100.00;100631.06;5055438;28;72829;-63
2023/12/12 00:37:01;;;;;;;;;11.33;9.33;;;;;12.24;100.00;100632.81;5056084;28;45712;-63
2023/12/12 00:39:26;;;;;;;;;14.00;10.67;;;;;12.25;100.00;100628.31;5057649;28;46172;-63
2023/12/12 00:41:52;;;;;;;;;10.00;10.00;;;;;12.29;100.00;100618.31;5055162;28;59455;-62
2023/12/12 00:44:17;;;;;;;;;12.00;10.67;;;;;12.30;100.00;100626.22;5056011;28;45554;-63
2023/12/12 00:46:42;;;;;;;;;13.00;10.67;;;;;12.32;100.00;100624.34;5063796;28;73065;-62
2023/12/12 00:49:08;;;;;;;;;11.33;10.33;;;;;12.33;100.00;100623.41;5052376;28;63837;-62
2023/12/12 00:51:33;;;;;;;;;11.00;10.67;;;;;12.35;100.00;100621.47;5054536;28;69712;-62
2023/12/12 00:53:58;;;;;;;;;11.67;10.00;;;;;12.36;100.00;100620.53;5055587;28;74591;-62
2023/12/12 00:56:24;;;;;;;;;10.33;10.33;;;;;12.38;100.00;100609.75;5055831;28;73219;-63
2023/12/12 00:58:49;;;;;;;;;11.00;11.00;;;;;12.39;100.00;100604.34;5054597;28;45741;-63
2023/12/12 01:01:14;;;;;;;;;9.00;9.00;;;;;12.40;100.00;100591.88;5051774;28;71560;-62
2023/12/12 01:03:40;;;;;;;;;12.67;9.67;;;;;12.44;100.00;100603.19;5056888;28;46059;-63
2023/12/12 01:06:06;;;;;;;;;12.00;11.33;;;;;12.44;100.00;100600.53;5060343;28;45391;-63
2023/12/12 01:08:31;;;;;;;;;14.67;13.00;;;;;12.42;100.00;100600.63;5060645;28;45331;-63
2023/12/12 01:10:57;;;;;;;;;9.00;9.00;;;;;12.44;100.00;100596.06;5059627;28;69533;-63
2023/12/12 01:13:22;;;;;;;;;9.33;9.33;;;;;12.46;100.00;100590.63;5041466;28;75448;-63
2023/12/12 01:15:47;;;;;;;;;11.67;10.00;;;;;12.46;100.00;100586.13;5059711;28;73205;-63
2023/12/12 01:18:12;;;;;;;;;10.33;10.00;;;;;12.47;100.00;100589.69;5059174;28;68532;-63
2023/12/12 01:20:38;;;;;;;;;14.00;12.67;;;;;12.47;100.00;100581.69;5058311;28;71979;-62
2023/12/12 01:23:03;;;;;;;;;16.67;13.33;;;;;12.46;100.00;100587.97;5058830;28;45986;-63
2023/12/12 01:25:30;;;;;;;;;10.33;9.00;;;;;12.45;100.00;100579.13;5091983;27;73299;-63
2023/12/12 01:27:55;;;;;;;;;15.67;13.67;;;;;12.46;100.00;100577.28;5057642;28;45477;-63
2023/12/12 01:30:20;;;;;;;;;13.00;11.67;;;;;12.47;100.00;100574.53;5058956;28;45655;-62
2023/12/12 01:32:45;;;;;;;;;11.33;11.00;;;;;12.48;100.00;100565.56;5057769;28;75527;-63
2023/12/12 01:35:11;;;;;;;;;11.33;9.67;;;;;12.50;100.00;100566.34;5058912;28;72680;-63
2023/12/12 01:37:36;;;;;;;;;13.33;10.33;;;;;12.49;100.00;100564.63;5059976;28;52958;-63
2023/12/12 01:40:02;;;;;;;;;15.67;12.00;;;;;12.48;100.00;100562.06;5075751;28;45405;-62
2023/12/12 01:42:27;;;;;;;;;10.67;10.33;;;;;12.47;100.00;100571.00;5059599;28;61408;-62
2023/12/12 01:44:52;;;;;;;;;12.00;12.00;;;;;12.48;100.00;100572.75;5056158;28;73299;-62
2023/12/12 01:47:17;;;;;;;;;11.67;11.33;;;;;12.48;100.00;100572.75;5059868;28;45702;-62
2023/12/12 01:49:44;;;;;;;;;11.00;11.00;;;;;12.49;100.00;100558.41;5058864;28;68607;-63
2023/12/12 01:52:09;;;;;;;;;10.00;10.00;;;;;12.50;100.00;100560.13;5022799;28;45471;-62
2023/12/12 01:54:37;;;;;;;;;11.00;10.67;;;;;12.49;100.00;100556.63;5092519;27;45369;-62
2023/12/12 01:57:02;;;;;;;;;15.67;11.33;;;;;12.47;100.00;100558.53;5058111;28;45618;-63
2023/12/12 01:59:28;;;;;;;;;9.67;9.67;;;;;12.47;100.00;100571.00;5092771;27;45350;-62
2023/12/12 02:01:54;;;;;;;;;8.33;8.33;;;;;12.44;100.00;100565.84;5057110;28;75827;-62
2023/12/12 02:04:20;;;;;;;;;10.00;10.00;;;;;12.45;100.00;100568.44;5092223;27;58351;-62
2023/12/12 02:06:47;;;;;;;;;9.00;8.00;;;;;12.47;100.00;100555.00;5058807;28;67862;-63
2023/12/12 02:09:12;;;;;;;;;8.00;8.00;;;;;12.48;100.00;100544.25;5092171;27;45477;-62
2023/12/12 02:11:37;;;;;;;;;9.00;9.00;;;;;12.50;100.00;100544.13;5057392;28;64816;-62
2023/12/12 02:14:03;;;;;;;;;9.00;8.00;;;;;12.49;100.00;100537.97;5054244;28;45446;-63
2023/12/12 02:16:28;;;;;;;;;12.00;9.00;;;;;12.51;100.00;100535.19;5053725;28;69831;-62
2023/12/12 02:18:53;;;;;;;;;9.33;8.00;;;;;12.51;100.00;100541.38;5091679;27;56955;-62
2023/12/12 02:21:19;;;;;;;;;8.33;8.33;;;;;12.54;100.00;100540.31;5058645;28;72718;-63
2023/12/12 02:23:47;;;;;;;;;7.67;7.67;;;;;12.53;100.00;100531.47;5058385;28;45662;-62
2023/12/12 02:26:12;;;;;;;;;7.67;7.67;;;;;12.54;100.00;100530.53;5059281;28;45536;-62
2023/12/12 02:28:37;;;;;;;;;7.33;7.33;;;;;12.54;100.00;100527.84;5092101;27;45583;-63
2023/12/12 02:31:03;;;;;;;;;10.67;9.00;;;;;12.54;100.00;100522.53;5054735;28;73826;-63
2023/12/12 02:33:28;;;;;;;;;10.33;10.33;;;;;12.54;100.00;100518.97;5091590;27;45296;-62
2023/12/12 02:35:54;;;;;;;;;8.67;7.67;;;;;12.56;100.00;100522.41;5057772;28;45387;-62
2023/12/12 02:38:19;;;;;;;;;9.00;9.00;;;;;12.56;100.00;100515.25;5059469;28;45854;-62
2023/12/12 02:40:44;;;;;;;;;9.33;9.33;;;;;12.59;100.00;100506.19;5059217;28;45438;-62
2023/12/12 02:43:09;;;;;;;;;10.00;10.00;;;;;12.59;100.00;100498.19;5057924;28;69844;-62
2023/12/12 02:45:35;;;;;;;;;13.67;6.67;;;;;12.60;100.00;100497.25;5058164;28;69374;-63
2023/12/12 02:48:01;;;;;;;;;7.33;7.33;;;;;12.60;100.00;100486.59;5056110;28;69440;-63
2023/12/12 02:50:26;;;;;;;;;7.00;7.00;;;;;12.61;100.00;100474.97;5063172;28;49389;-62
2023/12/12 02:52:52;;;;;;;;;9.00;7.00;;;;;12.62;100.00;100463.34;5056281;28;72960;-63
2023/12/12 02:55:17;;;;;;;;;8.67;8.67;;;;;12.63;100.00;100456.19;5074037;28;68228;-63
2023/12/12 02:57:43;;;;;;;;;6.33;6.33;;;;;12.61;100.00;100455.44;5073416;28;69401;-62
2023/12/12 03:00:09;;;;;;;;;7.00;7.00;;;;;12.57;100.00;100458.28;5058178;28;45407;-63
2023/12/12 03:02:34;;;;;;;;;5.00;5.00;;;;;12.54;100.00;100449.63;5083243;27;45422;-62
2023/12/12 03:04:59;;;;;;;;;5.33;4.67;;;;;12.52;100.00;100444.38;5072864;28;70442;-62
2023/12/12 03:07:25;;;;;;;;;6.33;6.00;;;;;12.51;100.00;100437.31;5059442;28;45512;-62
2023/12/12 03:09:50;;;;;;;;;5.67;5.67;;;;;12.49;100.00;100428.59;5057821;28;71374;-62
2023/12/12 03:12:16;;;;;;;;;8.67;8.00;;;;;12.44;100.00;100438.69;5057944;28;46746;-63
2023/12/12 03:14:41;;;;;;;;;6.67;6.00;;;;;12.36;100.00;100436.50;5058632;28;45465;-62
2023/12/12 03:17:06;;;;;;;;;3.00;3.00;;;;;12.34;100.00;100434.88;5056148;28;69424;-62
2023/12/12 03:19:32;;;;;;;;;6.67;4.67;;;;;12.34;100.00;100438.41;5091380;27;45804;-63
2023/12/12 03:21:57;;;;;;;;;5.00;5.00;;;;;12.33;100.00;100444.72;5058629;28;45379;-63
2023/12/12 03:24:22;;;;;;;;;8.00;5.33;;;;;12.33;100.00;100431.38;5057009;28;45346;-63
2023/12/12 03:26:48;;;;;;;;;5.33;5.33;;;;;12.33;100.00;100425.16;5056433;28;70367;-63
2023/12/12 03:29:13;;;;;;;;;3.00;3.00;;;;;12.34;100.00;100429.56;5057987;28;75487;-62
2023/12/12 03:31:41;;;;;;;;;9.00;5.33;;;;;12.35;100.00;100417.94;5057407;28;45735;-62
2023/12/12 03:34:08;;;;;;;;;6.00;5.00;;;;;12.34;100.00;100402.88;5058289;28;45765;-62
2023/12/12 03:36:33;;;;;;;;;7.00;5.67;;;;;12.31;100.00;100393.28;5059981;28;45457;-62
2023/12/12 03:38:59;;;;;;;;;6.67;4.00;;;;;12.27;100.00;100385.53;5058043;28;46457;-62
2023/12/12 03:41:24;;;;;;;;;4.00;4.00;;;;;12.21;100.00;100381.47;5056209;28;70696;-62
2023/12/12 03:43:50;;;;;;;;;4.00;4.00;;;;;12.18;100.00;100381.69;5090168;27;67650;-63
2023/12/12 03:46:16;;;;;;;;;6.00;6.00;;;;;12.15;100.00;100382.72;5040169;28;46200;-63
2023/12/12 03:48:41;;;;;;;;;6.00;6.00;;;;;12.15;100.00;100374.72;5088808;27;45390;-62
2023/12/12 03:51:10;;;;;;;;;4.33;4.33;;;;;12.16;100.00;100373.78;5090286;27;51519;-63
2023/12/12 03:53:36;;;;;;;;;6.33;6.33;;;;;12.18;100.00;100373.69;5058446;28;45502;-63
2023/12/12 03:56:01;;;;;;;;;4.33;4.33;;;;;12.19;100.00;100359.38;5056344;28;45537;-62
2023/12/12 03:58:27;;;;;;;;;4.00;4.00;;;;;12.22;100.00;100359.19;5090565;27;46002;-62
2023/12/12 04:00:52;;;;;;;;;6.00;6.00;;;;;12.23;100.00;100355.59;5056203;28;45426;-62
2023/12/12 04:03:18;;;;;;;;;7.33;5.33;;;;;12.23;100.00;100352.91;5057184;28;68489;-62
2023/12/12 04:05:43;;;;;;;;;6.67;5.00;;;;;12.26;100.00;100352.72;5054543;28;45478;-62
2023/12/12 04:08:08;;;;;;;;;8.33;7.33;;;;;12.28;100.00;100355.25;5057744;28;45677;-63
2023/12/12 04:10:34;;;;;;;;;8.00;8.00;;;;;12.27;100.00;100351.75;5055210;28;74212;-62
2023/12/12 04:12:59;;;;;;;;;7.00;5.67;;;;;12.30;100.00;100353.38;5056386;28;45638;-63
2023/12/12 04:15:24;;;;;;;;;8.00;8.00;;;;;12.33;100.00;100351.38;5059678;28;45450;-63
2023/12/12 04:17:50;;;;;;;;;6.00;5.00;;;;;12.34;100.00;100354.88;5089700;27;75777;-63
2023/12/12 04:20:15;;;;;;;;;7.00;7.00;;;;;12.34;100.00;100344.22;5055821;28;45293;-63
2023/12/12 04:22:41;;;;;;;;;5.00;5.00;;;;;12.34;100.00;100347.72;5058014;28;69255;-62
2023/12/12 04:25:06;;;;;;;;;6.00;6.00;;;;;12.36;100.00;100342.31;5066117;28;45507;-63
2023/12/12 04:27:32;;;;;;;;;8.00;6.00;;;;;12.38;100.00;100359.06;5056604;28;45647;-63
2023/12/12 04:29:57;;;;;;;;;6.67;5.00;;;;;12.36;100.00;100359.16;5057075;28;45354;-63
2023/12/12 04:32:23;;;;;;;;;4.33;4.33;;;;;12.36;100.00;100359.16;5039916;28;45356;-63
2023/12/12 04:34:48;;;;;;;;;4.00;3.00;;;;;12.37;100.00;100371.56;5056720;28;69333;-63
2023/12/12 04:37:14;;;;;;;;;4.00;4.00;;;;;12.40;100.00;100368.66;5059002;28;45618;-63
2023/12/12 04:39:40;;;;;;;;;4.67;4.33;;;;;12.45;100.00;100360.38;5072808;28;45409;-63
2023/12/12 04:42:05;;;;;;;;;4.33;4.33;;;;;12.48;100.00;100346.84;5058785;28;61924;-63
2023/12/12 04:44:30;;;;;;;;;5.33;4.67;;;;;12.52;100.00;100345.69;5060857;28;45508;-62
2023/12/12 04:46:56;;;;;;;;;6.33;5.00;;;;;12.53;100.00;100338.53;5059794;28;76249;-63
2023/12/12 04:49:21;;;;;;;;;5.00;5.00;;;;;12.56;100.00;100341.00;5060266;28;70514;-63
2023/12/12 04:51:46;;;;;;;;;4.00;4.00;;;;;12.58;100.00;100326.59;5060197;28;45964;-63
2023/12/12 04:54:12;;;;;;;;;3.67;3.67;;;;;12.61;100.00;100328.22;5059446;28;45598;-63
2023/12/12 04:56:37;;;;;;;;;6.33;5.00;;;;;12.62;100.00;100319.25;5059784;28;75516;-63
2023/12/12 04:59:02;;;;;;;;;4.00;4.00;;;;;12.63;100.00;100312.09;5059560;28;68906;-62
2023/12/12 05:01:28;;;;;;;;;4.67;4.67;;;;;12.64;100.00;100314.66;5069170;28;45438;-63
2023/12/12 05:03:53;;;;;;;;;5.00;5.00;;;;;12.64;100.00;100313.81;5042247;28;45694;-63
2023/12/12 05:06:18;;;;;;;;;5.00;5.00;;;;;12.63;100.00;100304.94;5059681;28;75792;-62
2023/12/12 05:08:44;;;;;;;;;7.67;6.33;;;;;12.62;100.00;100308.59;5059600;28;72200;-63
2023/12/12 05:11:11;;;;;;;;;7.00;5.00;;;;;12.62;100.00;100302.38;5060611;28;45463;-63
2023/12/12 05:13:36;;;;;;;;;6.00;6.00;;;;;12.61;100.00;100304.22;5060600;28;45419;-63
2023/12/12 05:16:03;;;;;;;;;5.00;5.00;;;;;12.58;100.00;100304.41;5059291;28;75382;-63
2023/12/12 05:18:28;;;;;;;;;4.00;4.00;;;;;12.57;100.00;100310.72;5059555;28;45947;-63
2023/12/12 05:20:54;;;;;;;;;4.67;4.67;;;;;12.57;100.00;100310.72;5059660;28;63285;-63
2023/12/12 05:23:19;;;;;;;;;5.67;5.67;;;;;12.56;100.00;100314.31;5059538;28;69223;-63
2023/12/12 05:25:44;;;;;;;;;5.33;5.33;;;;;12.57;100.00;100310.72;5057939;28;75113;-62
2023/12/12 05:28:10;;;;;;;;;4.00;4.00;;;;;12.57;100.00;100300.88;5058563;28;45588;-62
2023/12/12 05:30:35;;;;;;;;;6.33;5.33;;;;;12.57;100.00;100302.69;5060817;28;45273;-63
2023/12/12 05:33:01;;;;;;;;;5.33;5.33;;;;;12.57;100.00;100306.22;5058804;28;45494;-63
2023/12/12 05:35:26;;;;;;;;;5.00;4.00;;;;;12.58;100.00;100297.25;5059629;28;61432;-63
2023/12/12 05:37:52;;;;;;;;;6.00;4.67;;;;;12.57;100.00;100294.69;5057929;28;66351;-63
2023/12/12 05:40:17;;;;;;;;;5.00;5.00;;;;;12.54;100.00;100290.44;5057746;28;46271;-63
2023/12/12 05:42:43;;;;;;;;;7.33;5.00;;;;;12.51;100.00;100277.28;5058022;28;67873;-63
2023/12/12 05:45:09;;;;;;;;;7.33;7.00;;;;;12.45;100.00;100269.69;5059624;28;45428;-63
2023/12/12 05:47:34;;;;;;;;;5.00;5.00;;;;;12.39;100.00;100270.09;5059606;28;45447;-63
2023/12/12 05:50:00;;;;;;;;;7.00;6.00;;;;;12.34;100.00;100277.53;5057287;28;55026;-62
2023/12/12 05:52:25;;;;;;;;;7.00;7.00;;;;;12.27;100.00;100271.75;5060566;28;45357;-63
2023/12/12 05:54:51;;;;;;;;;8.00;6.67;;;;;12.21;100.00;100277.50;5070310;28;47010;-63
2023/12/12 05:57:16;;;;;;;;;6.00;6.00;;;;;12.14;100.00;100274.38;5061597;28;45414;-62
2023/12/12 05:59:42;;;;;;;;;5.33;5.33;;;;;12.10;100.00;100274.66;5056596;28;63715;-63
2023/12/12 06:02:07;;;;;;;;;6.00;6.00;;;;;12.11;100.00;100268.38;5059703;28;45474;-62
2023/12/12 06:04:35;;;;;;;;;7.00;7.00;;;;;12.08;100.00;100270.31;5055104;28;46891;-64
2023/12/12 06:07:01;;;;;;;;;13.67;9.67;;;;;12.07;100.00;100276.56;5057129;28;45498;-62
2023/12/12 06:09:27;;;;;;;;;6.67;6.67;;;;;12.06;100.00;100282.03;5089401;27;45434;-63
2023/12/12 06:11:52;;;;;;;;;7.33;7.00;;;;;12.06;100.00;100284.69;5056826;28;46272;-63
2023/12/12 06:14:17;;;;;;;;;8.33;7.00;;;;;12.08;100.00;100270.31;5090952;27;75659;-62
2023/12/12 06:16:43;;;;;;;;;10.00;7.00;;;;;12.11;100.00;100260.38;5057157;28;63627;-62
2023/12/12 06:19:09;;;;;;;;;7.33;6.00;;;;;12.14;100.00;100241.53;5057808;28;68866;-63
2023/12/12 06:21:34;;;;;;;;;4.00;4.00;;;;;12.16;100.00;100237.81;5058825;28;45439;-62
2023/12/12 06:24:03;;;;;;;;;10.33;8.67;;;;;12.17;100.00;100241.31;5054271;28;47301;-62
2023/12/12 06:26:29;;;;;;;;;7.00;6.33;;;;;12.15;100.00;100238.75;5056728;28;48893;-62
2023/12/12 06:28:55;;;;;;;;;6.00;5.67;;;;;12.15;100.00;100248.56;5057502;28;47228;-62
2023/12/12 06:31:21;;;;;;;;;7.33;7.33;;;;;12.14;100.00;100237.03;5058451;28;45431;-61
2023/12/12 06:33:47;;;;;;;;;6.00;6.00;;;;;12.16;100.00;100239.59;5066127;28;48632;-62
2023/12/12 06:36:12;;;;;;;;;9.00;7.00;;;;;12.17;100.00;100250.16;5049602;28;46933;-62
2023/12/12 06:38:37;;;;;;;;;6.67;5.00;;;;;12.17;100.00;100244.84;5054771;28;45663;-63
2023/12/12 06:41:03;;;;;;;;;7.67;7.67;;;;;12.20;100.00;100243.78;5052984;28;49486;-59
2023/12/12 06:43:29;;;;;;;;;5.00;5.00;;;;;12.21;100.00;100249.00;5051025;28;46764;-62
2023/12/12 06:45:54;;;;;;;;;9.33;6.67;;;;;12.26;100.00;100253.19;5054083;28;45842;-63
2023/12/12 06:48:20;;;;;;;;;5.33;5.00;;;;;12.32;100.00;100268.78;5055153;27;45274;-62
2023/12/12 06:50:45;;;;;;;;;5.00;5.00;;;;;12.38;100.00;100260.38;5051557;28;70180;-63
2023/12/12 06:53:10;;;;;;;;;6.00;4.67;;;;;12.44;100.00;100256.44;5049433;28;46334;-63
2023/12/12 06:55:37;;;;;;;;;5.00;5.00;;;;;12.47;100.00;100250.91;5050243;28;47476;-62
2023/12/12 06:58:03;;;;;;;;;4.67;3.33;;;;;12.51;100.00;100257.75;5052113;28;45409;-62
2023/12/12 07:00:29;;;;;;;;;5.00;4.00;;;;;12.52;100.00;100254.13;5054632;28;45516;-62
2023/12/12 07:02:55;;;;;;;;;5.00;3.33;;;;;12.50;100.00;100262.25;5051144;28;45714;-62
2023/12/12 07:05:21;;;;;;;;;4.00;4.00;;;;;12.51;100.00;100265.75;5053506;28;45366;-62
2023/12/12 07:07:47;;;;;;;;;6.67;6.67;;;;;12.53;100.00;100264.69;5053164;28;45842;-63
2023/12/12 07:10:13;;;;;;;;;7.33;4.67;;;;;12.57;100.00;100276.03;5051453;28;49004;-62
2023/12/12 07:12:38;;;;;;;;;4.00;3.33;;;;;12.58;100.00;100269.75;5060302;28;45405;-63
2023/12/12 07:15:04;;;;;;;;;5.00;5.00;;;;;12.63;100.00;100280.09;5067884;27;45340;-62
2023/12/12 07:17:29;;;;;;;;;5.00;4.00;;;;;12.64;100.00;100282.66;5047334;28;45591;-62
2023/12/12 07:19:55;;;;;;;;;6.33;3.67;;;;;12.67;100.00;100279.78;5058492;28;45399;-62
2023/12/12 07:22:21;;;;;;;;;4.00;4.00;;;;;12.69;100.00;100277.84;5054624;28;46500;-63
2023/12/12 07:24:46;;;;;;;;;4.67;3.00;;;;;12.71;100.00;100286.63;5060732;28;45442;-63
2023/12/12 07:27:12;;;;;;;;;4.67;4.67;;;;;12.74;100.00;100275.75;5056685;28;45399;-63
2023/12/12 07:29:38;;;;;;;;;3.00;3.00;;;;;12.78;100.00;100272.88;5045664;28;45343;-63
2023/12/12 07:32:04;;;;;;;;;3.00;3.00;;;;;12.78;100.00;100281.72;5053514;28;45775;-63
2023/12/12 07:34:29;;;;;;;;;4.33;3.00;;;;;12.79;100.00;100279.91;5039051;28;45816;-64
2023/12/12 07:36:54;;;;;;;;;4.00;3.67;;;;;12.78;100.00;100276.41;5056869;28;50685;-62
2023/12/12 07:39:20;;;;;;;;;5.00;4.00;;;;;12.79;100.00;100271.91;5056864;28;64149;-62
2023/12/12 07:41:45;;;;;;;;;3.67;3.00;;;;;12.80;100.00;100274.50;5055782;28;71150;-62
2023/12/12 07:44:11;;;;;;;;;5.00;5.00;;;;;12.80;100.00;100270.94;5058356;28;45571;-62
2023/12/12 07:46:41;;;;;;;;;4.00;4.00;;;;;12.82;100.00;100269.03;5057996;28;45331;-62
2023/12/12 07:49:06;;;;;;;;;5.00;3.00;;;;;12.83;100.00;100268.09;5097068;27;45453;-63
2023/12/12 07:51:32;;;;;;;;;3.00;3.00;;;;;12.84;100.00;100275.13;5058762;28;66795;-62
2023/12/12 07:53:58;;;;;;;;;4.67;3.00;;;;;12.86;100.00;100275.88;5057222;28;45645;-62
2023/12/12 07:56:23;;;;;;;;;6.33;3.67;;;;;12.88;100.00;100272.16;5056608;28;45346;-66
2023/12/12 07:58:49;;;;;;;;;3.33;3.33;;;;;12.91;100.00;100273.75;5056304;28;52567;-61
2023/12/12 08:01:15;;;;;;;;;3.00;3.00;;;;;12.90;100.00;100256.03;5057849;28;46138;-65
2023/12/12 08:03:41;;;;;;;;;2.33;2.33;;;;;12.93;100.00;100265.63;5091050;27;45605;-64
2023/12/12 08:06:07;;;;;;;;;3.67;3.67;;;;;12.95;100.00;100261.91;5061097;28;45665;-65
2023/12/12 08:08:32;;;;;;;;;4.00;4.00;;;;;12.98;100.00;100269.69;5058084;28;45459;-64
2023/12/12 08:10:58;;;;;;;;;5.33;5.33;;;;;13.01;100.00;100257.94;5057041;28;46516;-64
2023/12/12 08:13:23;;;;;;;;;3.67;3.67;;;;;13.03;100.00;100254.19;5078342;27;45404;-64
2023/12/12 08:15:49;;;;;;;;;4.00;4.00;;;;;13.06;100.00;100246.00;5061595;28;68209;-65
2023/12/12 08:18:14;;;;;;;;;4.33;3.67;;;;;13.10;100.00;100245.78;5061374;28;45673;-66
2023/12/12 08:20:40;;;;;;;;;3.67;2.33;;;;;13.12;100.00;100250.06;5061783;28;46241;-65
2023/12/12 08:23:06;;;;;;;;;2.33;2.33;;;;;13.14;100.00;100255.28;5061673;28;45383;-65
2023/12/12 08:25:32;;;;;;;;;4.00;4.00;;;;;13.14;100.00;100240.13;5066919;28;45355;-65
2023/12/12 08:27:57;;;;;;;;;3.33;3.33;;;;;13.16;100.00;100246.19;5061122;28;45480;-65
2023/12/12 08:30:23;;;;;;;;;5.00;3.33;;;;;13.18;100.00;100243.41;5061259;28;45503;-64
2023/12/12 08:32:48;;;;;;;;;4.67;3.00;;;;;13.19;100.00;100246.00;5096891;27;45412;-65
2023/12/12 08:35:13;;;;;;;;;2.00;2.00;;;;;13.20;100.00;100250.38;5062510;28;68114;-66
2023/12/12 08:37:40;;;;;;;;;2.33;2.33;;;;;13.24;100.00;100253.69;5060580;28;64069;-65
2023/12/12 08:40:05;;;;;;;;;3.00;3.00;;;;;13.27;100.00;100241.94;5059024;28;47923;-65
2023/12/12 08:42:31;;;;;;;;;3.67;3.67;;;;;13.32;100.00;100253.16;5064297;28;45602;-65
2023/12/12 08:44:56;;;;;;;;;2.00;2.00;;;;;13.35;100.00;100256.47;5066014;28;45523;-65
2023/12/12 08:47:21;;;;;;;;;0.33;0.33;;;;;13.39;100.00;100260.66;5079947;27;71353;-65
2023/12/12 08:49:47;;;;;;;;;2.67;2.00;;;;;13.43;100.00;100257.75;5062760;27;73319;-64
2023/12/12 08:52:14;;;;;;;;;4.00;2.67;;;;;13.48;100.00;100250.28;5048965;28;45401;-66
2023/12/12 08:54:39;;;;;;;;;3.67;2.00;;;;;13.52;100.00;100255.31;5096505;27;45656;-64
2023/12/12 08:57:04;;;;;;;;;0.33;0.33;;;;;13.53;100.00;100254.34;5041351;28;70596;-65
2023/12/12 08:59:30;;;;;;;;;2.33;0.67;;;;;13.58;100.00;100251.34;5061383;28;45771;-65
2023/12/12 09:01:55;;;;;;;;;0.00;0.00;;;;;13.63;100.00;100257.19;5060264;28;48512;-65
2023/12/12 09:04:21;;;;;;;;;0.33;0.33;;;;;13.66;100.00;100248.97;5065431;28;45348;-65
2023/12/12 09:06:46;;;;;;;;;0.00;0.00;;;;;13.69;100.00;100251.44;5060042;28;70466;-65
2023/12/12 09:09:12;;;;;;;;;0.00;0.00;;;;;13.73;100.00;100254.75;5062519;28;46579;-65
2023/12/12 09:11:39;;;;;;;;;0.00;0.00;;;;;13.77;100.00;100248.19;5093451;27;45840;-64
2023/12/12 09:14:04;;;;;;;;;0.00;0.00;;;;;13.80;100.00;100242.63;5061905;27;45364;-64
2023/12/12 09:16:30;;;;;;;;;1.00;1.00;;;;;13.86;100.00;100241.34;5061025;28;45486;-64
2023/12/12 09:18:56;;;;;;;;;1.00;1.00;;;;;13.89;100.00;100235.75;5062138;28;47399;-65
2023/12/12 09:21:21;;;;;;;;;0.00;0.00;;;;;13.92;100.00;100243.53;5060764;28;73908;-65
2023/12/12 09:23:47;;;;;;;;;0.67;0.00;;;;;13.96;100.00;100241.50;5067441;28;46230;-65
2023/12/12 09:26:16;;;;;;;;;0.00;0.00;;;;;14.00;100.00;100241.19;5058595;28;45428;-65
2023/12/12 09:28:42;;;;;;;;;0.33;0.33;;;;;14.05;100.00;100238.16;5055635;28;45512;-65
2023/12/12 09:31:08;;;;;;;;;0.00;0.00;;;;;14.12;100.00;100242.09;5055670;28;45406;-66
2023/12/12 09:33:39;;;;;;;;;0.00;0.00;;;;;14.18;100.00;100238.97;5056782;28;45623;-65
2023/12/12 09:36:06;;;;;;;;;1.33;1.33;;;;;14.22;100.00;100239.59;5022381;28;45368;-66
2023/12/12 09:38:31;;;;;;;;;2.00;1.00;;;;;14.26;99.77;100243.72;5037247;28;46331;-65
2023/12/12 09:40:56;;;;;;;;;0.00;0.00;;;;;14.26;99.13;100243.72;5021204;28;45372;-64
2023/12/12 09:43:26;;;;;;;;;0.00;0.00;;;;;14.25;97.36;100249.22;5021001;28;45878;-66
2023/12/12 09:45:55;;;;;;;;;0.00;0.00;;;;;14.21;98.50;100253.94;5039150;28;45661;-65
2023/12/12 09:48:21;;;;;;;;;0.00;0.00;;;;;14.16;97.88;100258.78;5022622;28;48020;-65
2023/12/12 09:50:47;;;;;;;;;0.00;0.00;;;;;14.14;98.38;100244.66;5039483;28;73092;-65
2023/12/12 09:53:13;;;;;;;;;0.00;0.00;;;;;14.15;98.79;100238.34;5034316;28;45359;-66
2023/12/12 09:55:39;;;;;;;;;0.33;0.33;;;;;14.16;97.53;100237.38;5003932;28;45417;-65
2023/12/12 09:58:05;;;;;;;;;0.00;0.00;;;;;14.17;97.42;100231.91;5036234;28;48059;-67
2023/12/12 10:00:30;;;;;;;;;0.00;0.00;;;;;14.20;96.46;100233.50;5021933;28;45825;-66
2023/12/12 10:02:58;;;;;;;;;0.00;0.00;;;;;14.24;97.52;100240.34;5022131;28;59756;-66
2023/12/12 10:05:28;;;;;;;;;0.00;0.00;;;;;14.29;97.27;100229.28;5011937;28;45546;-65
2023/12/12 10:07:54;;;;;;;;;1.00;0.67;;;;;14.31;97.60;100233.53;5038521;28;45996;-66
2023/12/12 10:10:19;;;;;;;;;0.67;0.00;;;;;14.35;96.47;100229.69;5046689;28;45403;-66
2023/12/12 10:12:47;;;;;;;;;0.00;0.00;;;;;14.37;96.86;100227.75;5033395;28;45726;-65
2023/12/12 10:15:39;;;;;;;;;0.00;0.00;;;;;14.39;94.43;100222.28;5019078;28;45404;-62
2023/12/12 10:18:05;;;;;;;;;2.00;0.25;;;;;14.44;95.54;100224.63;5019169;28;46414;-65
2023/12/12 10:20:31;;;;;;;;;0.00;0.00;;;;;14.47;94.42;100219.91;5023716;28;54793;-66
2023/12/12 10:22:58;;;;;;;;;1.00;1.00;;;;;14.55;94.52;100220.16;5038724;28;45537;-66
2023/12/12 10:25:24;;;;;;;;;0.00;0.00;;;;;14.66;95.24;100215.84;5020848;28;45404;-65
2023/12/12 10:27:52;;;;;;;;;0.00;0.00;;;;;14.77;94.57;100215.00;5018750;28;47046;-65
2023/12/12 10:30:20;;;;;;;;;0.00;0.00;;;;;14.86;92.22;100209.81;5038634;28;45413;-66
2023/12/12 10:32:47;;;;;;;;;0.00;0.00;;;;;14.96;92.02;100201.06;5027463;28;45454;-66
2023/12/12 10:35:12;;;;;;;;;0.00;0.00;;;;;15.07;91.68;100205.56;5055488;28;45750;-66
2023/12/12 10:37:37;;;;;;;;;0.00;0.00;;;;;15.13;90.58;100199.75;5059139;28;61832;-68
2023/12/12 10:40:13;;;;;;;;;0.00;0.00;;;;;15.20;88.05;100199.13;5084620;27;63287;-66
2023/12/12 10:42:40;;;;;;;;;0.00;0.00;;;;;15.25;89.64;100198.75;5047954;28;45660;-66
2023/12/12 10:45:06;;;;;;;;;0.00;0.00;;;;;15.29;87.06;100199.38;5055878;28;46504;-66
2023/12/12 10:47:33;;;;;;;;;0.00;0.00;;;;;15.30;88.78;100191.22;5053988;28;46347;-66
2023/12/12 10:50:02;;;;;;;;;0.00;0.00;;;;;15.33;88.17;100188.31;5062317;28;45516;-67
2023/12/12 10:52:30;;;;;;;;;0.00;0.00;;;;;15.32;87.87;100193.78;5041722;28;45596;-66
2023/12/12 10:54:57;;;;;;;;;0.00;0.00;;;;;15.26;87.90;100189.75;5059575;28;45631;-65
2023/12/12 10:57:24;;;;;;;;;0.00;0.00;;;;;15.20;87.60;100180.38;5090624;27;45440;-66
2023/12/12 10:59:50;;;;;;;;;0.00;0.00;;;;;15.15;85.28;100189.78;5038316;28;45529;-67
2023/12/12 11:02:16;;;;;;;;;0.00;0.00;;;;;15.04;86.48;100194.16;5073999;27;44805;-66
2023/12/12 11:04:42;;;;;;;;;0.00;0.00;;;;;14.99;86.81;100182.94;5052655;28;45608;-65
2023/12/12 11:07:07;;;;;;;;;0.00;0.00;;;;;14.97;87.79;100176.84;5058172;28;46708;-65
2023/12/12 11:09:33;;;;;;;;;0.00;0.00;;;;;14.92;87.01;100173.66;5092876;27;45578;-66